Time;durP1;ratioP1;P1;durP2;ratioP2;P2;SDS_P1;SDS_P2;PMS_P1;PMS_P2;Temp;Humidity;BMP_temperature;BMP_pressure;BME280_temperature;BME280_humidity;BME280_pressure;Samples;Min_cycle;Max_cycle;Signal;HPM_P1;HPM_P2
2022/12/03 00:04:24;;;;;;;1.48;1.20;;;;;;;0.92;100.00;102495.19;10410631;28;20111;-80
2022/12/03 00:09:26;;;;;;;0.30;0.30;;;;;;;0.97;100.00;102492.16;10414384;28;20056;-79
2022/12/03 00:14:28;;;;;;;0.55;0.55;;;;;;;0.93;100.00;102496.06;10410867;28;20045;-80
2022/12/03 00:19:29;;;;;;;1.17;1.08;;;;;;;0.94;100.00;102492.78;10415870;28;20037;-79
2022/12/03 00:24:31;;;;;;;0.50;0.38;;;;;;;0.92;100.00;102492.66;10411359;28;20051;-79
2022/12/03 00:29:33;;;;;;;1.60;1.15;;;;;;;0.91;100.00;102485.78;10409618;28;20034;-79
2022/12/03 00:34:35;;;;;;;0.22;0.22;;;;;;;0.93;100.00;102491.88;10403823;28;20515;-80
2022/12/03 00:39:37;;;;;;;0.63;0.63;;;;;;;0.92;100.00;102492.66;10407599;28;20100;-80
2022/12/03 00:44:38;;;;;;;1.00;0.88;;;;;;;0.97;100.00;102489.63;10399150;28;20064;-81
2022/12/03 00:49:40;;;;;;;0.95;0.90;;;;;;;0.93;100.00;102494.41;10419873;28;20092;-80
2022/12/03 00:54:41;;;;;;;1.63;1.27;;;;;;;0.95;100.00;102487.84;10411820;28;20049;-80
2022/12/03 00:59:43;;;;;;;0.73;0.73;;;;;;;0.98;100.00;102499.03;10393012;28;20076;-80
2022/12/03 01:04:45;;;;;;;3.30;1.17;;;;;;;0.97;100.00;102503.19;10399831;28;20053;-80
2022/12/03 01:09:46;;;;;;;1.33;0.73;;;;;;;1.00;100.00;102497.53;10411803;28;20042;-80
2022/12/03 01:14:48;;;;;;;1.20;0.60;;;;;;;0.99;100.00;102495.75;10421303;28;20542;-80
2022/12/03 01:19:53;;;;;;;0.65;0.65;;;;;;;1.00;100.00;102487.38;10410915;28;20064;-80
2022/12/03 01:24:54;;;;;;;0.38;0.38;;;;;;;1.01;100.00;102499.28;10412974;28;20103;-80
2022/12/03 01:29:56;;;;;;;0.77;0.50;;;;;;;1.00;100.00;102495.00;10407712;28;20382;-80
2022/12/03 01:34:58;;;;;;;6.43;1.70;;;;;;;0.97;100.00;102489.63;10409773;28;20079;-79
2022/12/03 01:39:59;;;;;;;2.28;1.25;;;;;;;0.98;100.00;102493.94;10404942;28;20042;-80
2022/12/03 01:45:02;;;;;;;2.28;0.47;;;;;;;0.95;100.00;102484.41;10400967;28;20068;-79
2022/12/03 01:50:07;;;;;;;0.63;0.63;;;;;;;0.96;100.00;102481.13;10396913;28;20038;-79
2022/12/03 01:55:15;;;;;;;1.30;0.93;;;;;;;0.93;100.00;102481.72;10410293;28;20066;-80
2022/12/03 02:00:20;;;;;;;0.63;0.52;;;;;;;0.97;100.00;102487.09;10423740;28;20552;-79
2022/12/03 02:05:27;;;;;;;1.85;1.27;;;;;;;0.94;100.00;102480.97;10415925;28;20045;-77
2022/12/03 02:10:36;;;;;;;0.70;0.50;;;;;;;0.94;100.00;102472.47;10420946;28;20113;-77
2022/12/03 02:15:38;;;;;;;0.52;0.52;;;;;;;0.90;100.00;102466.25;10412311;28;20096;-77
2022/12/03 02:21:19;;;;;;;0.85;0.55;;;;;;;0.94;100.00;102463.22;10428798;28;20045;-78
2022/12/03 02:26:21;;;;;;;0.85;0.60;;;;;;;0.88;100.00;102456.72;10401620;28;20096;-78
2022/12/03 02:31:23;;;;;;;0.82;0.57;;;;;;;0.84;100.00;102455.53;10420084;28;20095;-76
2022/12/03 02:36:26;;;;;;;0.47;0.47;;;;;;;0.85;100.00;102442.09;10393740;28;20045;-77
2022/12/03 02:47:53;;;;;;;8.50;2.05;;;;;;;0.74;100.00;102427.53;10440437;28;20041;-77
2022/12/03 02:53:03;;;;;;;1.13;0.93;;;;;;;0.76;100.00;102431.13;10408348;28;20044;-76
2022/12/03 02:58:06;;;;;;;2.47;1.25;;;;;;;0.70;100.00;102422.97;10419432;28;20045;-78
2022/12/03 03:03:08;;;;;;;0.73;0.73;;;;;;;0.67;100.00;102420.13;10418049;28;20440;-78
2022/12/03 03:08:10;;;;;;;0.35;0.35;;;;;;;0.63;100.00;102429.09;10419044;28;20060;-78
2022/12/03 03:13:15;;;;;;;2.97;0.93;;;;;;;0.63;100.00;102440.13;10418174;28;20084;-77
2022/12/03 03:18:17;;;;;;;0.68;0.38;;;;;;;0.65;100.00;102441.91;10413039;28;20145;-78
2022/12/03 03:23:21;;;;;;;2.17;1.80;;;;;;;0.65;100.00;102444.47;10417884;28;20437;-77
2022/12/03 03:28:24;;;;;;;1.50;1.40;;;;;;;0.60;100.00;102444.03;10417840;28;20046;-80
2022/12/03 03:33:26;;;;;;;2.55;1.17;;;;;;;0.57;100.00;102449.72;10406042;28;20073;-80
2022/12/03 03:38:29;;;;;;;0.20;0.20;;;;;;;0.57;100.00;102454.78;10417019;28;20099;-79
2022/12/03 03:43:33;;;;;;;2.55;1.52;;;;;;;0.57;100.00;102453.91;10398684;28;20143;-80
2022/12/03 03:48:35;;;;;;;0.40;0.40;;;;;;;0.58;100.00;102451.50;10390997;28;20083;-80
2022/12/03 03:53:42;;;;;;;0.95;0.90;;;;;;;0.49;100.00;102468.41;10412827;28;20049;-80
2022/12/03 03:58:44;;;;;;;0.30;0.30;;;;;;;0.48;100.00;102464.13;10398121;28;20050;-79
2022/12/03 04:03:45;;;;;;;1.25;0.95;;;;;;;0.50;100.00;102462.59;10417113;28;20084;-79
2022/12/03 04:08:47;;;;;;;0.65;0.65;;;;;;;0.50;100.00;102461.72;10412724;28;20038;-79
2022/12/03 04:13:49;;;;;;;1.80;0.88;;;;;;;0.48;100.00;102469.19;10403132;28;20481;-79
2022/12/03 04:18:50;;;;;;;7.10;1.80;;;;;;;0.46;100.00;102466.50;10422820;28;20053;-78
2022/12/03 04:23:52;;;;;;;1.63;1.40;;;;;;;0.47;100.00;102472.47;10413548;28;20047;-78
2022/12/03 04:28:54;;;;;;;0.40;0.40;;;;;;;0.49;100.00;102475.16;10412311;28;20049;-78
2022/12/03 04:39:16;;;;;;;1.92;1.00;;;;;;;0.44;100.00;102472.19;10389533;28;20528;-79
2022/12/03 04:44:34;;;;;;;1.33;1.05;;;;;;;0.45;100.00;102473.97;10389913;28;20459;-79
2022/12/03 04:49:46;;;;;;;0.10;0.10;;;;;;;0.42;100.00;102476.22;10400310;28;20084;-79
2022/12/03 04:54:48;;;;;;;0.40;0.35;;;;;;;0.42;100.00;102478.75;10378864;28;20049;-79
2022/12/03 04:59:50;;;;;;;0.57;0.38;;;;;;;0.43;100.00;102485.59;10411778;28;20049;-78
2022/12/03 05:04:51;;;;;;;1.95;0.75;;;;;;;0.44;100.00;102482.31;10402374;28;20119;-80
2022/12/03 05:09:53;;;;;;;0.70;0.57;;;;;;;0.44;100.00;102488.31;10395716;28;20049;-80
2022/12/03 05:14:55;;;;;;;0.13;0.13;;;;;;;0.43;100.00;102480.53;10400470;28;20073;-79
2022/12/03 05:25:17;;;;;;;15.13;1.63;;;;;;;0.42;100.00;102478.75;10401820;28;20053;-79
2022/12/03 05:30:22;;;;;;;0.45;0.45;;;;;;;0.38;100.00;102481.75;10404649;28;20033;-79
2022/12/03 05:35:23;;;;;;;2.72;1.88;;;;;;;0.43;100.00;102480.53;10420979;28;20099;-80
2022/12/03 05:40:25;;;;;;;0.55;0.35;;;;;;;0.38;100.00;102471.63;10415188;28;20417;-79
2022/12/03 05:45:33;;;;;;;0.47;0.47;;;;;;;0.37;100.00;102469.84;10422740;28;20083;-79
2022/12/03 05:50:39;;;;;;;0.25;0.25;;;;;;;0.41;100.00;102471.91;10423710;28;20048;-79
2022/12/03 05:55:50;;;;;;;0.73;0.73;;;;;;;0.38;100.00;102475.03;10434137;28;20051;-78
2022/12/03 06:00:51;;;;;;;1.85;1.02;;;;;;;0.41;100.00;102482.06;10408166;28;20037;-78
2022/12/03 06:05:53;;;;;;;1.88;1.00;;;;;;;0.34;100.00;102474.59;10412411;28;20057;-78
2022/12/03 06:10:55;;;;;;;2.75;1.58;;;;;;;0.41;100.00;102477.00;10416525;28;20037;-79
2022/12/03 06:15:56;;;;;;;0.77;0.77;;;;;;;0.37;100.00;102472.38;10419390;28;20433;-79
2022/12/03 06:20:58;;;;;;;0.63;0.57;;;;;;;0.29;100.00;102472.56;10408350;28;20050;-78
2022/12/03 06:26:00;;;;;;;0.17;0.17;;;;;;;0.29;100.00;102477.63;10389925;28;20060;-79
2022/12/03 06:31:02;;;;;;;1.00;0.80;;;;;;;0.34;100.00;102479.69;10421772;28;20420;-79
2022/12/03 06:36:07;;;;;;;0.60;0.55;;;;;;;0.20;100.00;102471.69;10402608;28;20136;-77
2022/12/03 06:41:08;;;;;;;2.75;2.58;;;;;;;0.12;100.00;102473.53;10424669;28;20439;-78
2022/12/03 06:46:10;;;;;;;1.48;0.70;;;;;;;0.13;100.00;102470.25;10419963;28;20467;-79
2022/12/03 06:51:11;;;;;;;5.90;2.08;;;;;;;0.17;100.00;102460.38;10420422;28;20400;-78
2022/12/03 06:56:13;;;;;;;3.08;2.53;;;;;;;0.12;100.00;102462.47;10395176;28;20049;-82
2022/12/03 07:01:20;;;;;;;0.52;0.40;;;;;;;0.15;100.00;102455.16;10407124;28;20095;-78
2022/12/03 07:06:22;;;;;;;2.10;1.90;;;;;;;0.10;100.00;102453.84;10408004;28;20042;-78
2022/12/03 07:11:38;;;;;;;0.55;0.55;;;;;;;0.14;100.00;102450.84;10405955;28;20033;-77
2022/12/03 07:16:42;;;;;;;5.78;1.70;;;;;;;0.12;100.00;102454.88;10392167;28;20095;-77
2022/12/03 07:21:44;;;;;;;0.25;0.25;;;;;;;0.09;100.00;102462.22;10392361;28;20405;-76
2022/12/03 07:26:45;;;;;;;4.65;2.92;;;;;;;0.11;100.00;102465.78;10419895;28;20057;-79
2022/12/03 07:31:47;;;;;;;3.63;2.10;;;;;;;0.06;100.00;102477.09;10422888;28;20074;-77
2022/12/03 07:36:48;;;;;;;2.95;2.42;;;;;;;0.07;100.00;102483.97;10398908;28;20049;-79
2022/12/03 07:41:50;;;;;;;3.92;2.33;;;;;;;0.04;100.00;102481.16;10417896;28;20053;-78
2022/12/03 07:46:53;;;;;;;1.70;1.13;;;;;;;0.05;100.00;102481.31;10418706;28;20048;-79
2022/12/03 07:51:55;;;;;;;1.48;0.80;;;;;;;0.04;100.00;102478.63;10412337;28;20077;-78
2022/12/03 07:56:57;;;;;;;1.02;0.63;;;;;;;0.06;100.00;102478.03;10419075;28;20045;-77
2022/12/03 08:02:11;;;;;;;0.52;0.38;;;;;;;0.04;100.00;102476.09;10411052;28;20046;-77
2022/12/03 08:07:21;;;;;;;1.88;1.45;;;;;;;0.08;100.00;102462.94;10401090;28;20539;-78
2022/12/03 08:12:38;;;;;;;2.38;1.65;;;;;;;0.01;100.00;102460.59;10395432;28;20044;-78
2022/12/03 08:17:41;;;;;;;0.70;0.70;;;;;;;0.01;100.00;102458.94;10412175;28;20456;-78
2022/12/03 08:22:46;;;;;;;2.22;1.77;;;;;;;-0.06;100.00;102454.97;10406485;28;20050;-78
2022/12/03 08:27:56;;;;;;;3.00;1.42;;;;;;;-0.07;100.00;102449.72;10415295;28;20489;-78
2022/12/03 08:32:58;;;;;;;0.30;0.23;;;;;;;-0.13;100.00;102447.53;10398775;28;20050;-79
2022/12/03 08:38:11;;;;;;;0.47;0.47;;;;;;;-0.11;100.00;102456.13;10415180;28;20050;-78
2022/12/03 08:43:26;;;;;;;6.43;2.10;;;;;;;-0.04;100.00;102455.97;10389030;28;20042;-77
2022/12/03 08:48:54;;;;;;;0.90;0.82;;;;;;;-0.07;100.00;102449.72;10417517;28;20057;-77
2022/12/03 08:54:06;;;;;;;1.45;1.17;;;;;;;-0.12;100.00;102451.84;10415555;28;20045;-77
2022/12/03 08:59:30;;;;;;;1.65;0.93;;;;;;;-0.12;100.00;102443.34;10440272;28;20053;-78
2022/12/03 09:04:39;;;;;;;0.70;0.70;;;;;;;-0.16;100.00;102442.16;10415593;28;20117;-78
2022/12/03 09:09:40;;;;;;;0.95;0.90;;;;;;;-0.22;100.00;102429.81;10400798;28;20048;-77
2022/12/03 09:14:42;;;;;;;1.92;1.15;;;;;;;-0.22;100.00;102441.59;10406037;28;20046;-77
2022/12/03 09:19:45;;;;;;;0.08;0.08;;;;;;;-0.17;100.00;102453.03;10390085;28;20045;-77
2022/12/03 09:24:47;;;;;;;1.88;1.20;;;;;;;-0.12;100.00;102467.06;10435757;28;20051;-78
2022/12/03 09:29:49;;;;;;;1.48;1.10;;;;;;;-0.24;100.00;102471.84;10392777;28;20049;-77
2022/12/03 09:34:53;;;;;;;0.10;0.10;;;;;;;-0.22;100.00;102475.41;10377886;28;20088;-78
2022/12/03 09:39:55;;;;;;;0.10;0.10;;;;;;;-0.13;100.00;102484.63;10408888;28;20065;-78
2022/12/03 09:44:57;;;;;;;0.93;0.82;;;;;;;-0.20;100.00;102483.16;10411421;28;20041;-77
2022/12/03 09:49:59;;;;;;;1.10;0.85;;;;;;;-0.24;100.00;102481.97;10399828;28;20054;-77
2022/12/03 09:55:13;;;;;;;0.57;0.52;;;;;;;-0.27;100.00;102478.25;10410121;28;20068;-76
2022/12/03 10:00:18;;;;;;;1.58;1.30;;;;;;;-0.26;100.00;102477.53;10428505;28;20041;-78
2022/12/03 10:05:21;;;;;;;1.05;0.45;;;;;;;-0.29;100.00;102478.09;10416197;28;20074;-78
2022/12/03 10:10:24;;;;;;;3.60;1.45;;;;;;;-0.30;100.00;102476.34;10409023;28;20050;-78
2022/12/03 10:15:26;;;;;;;0.08;0.08;;;;;;;-0.27;100.00;102485.88;10410349;28;20057;-78
2022/12/03 10:20:27;;;;;;;0.30;0.30;;;;;;;-0.24;100.00;102492.13;10389244;28;20583;-78
2022/12/03 10:25:29;;;;;;;0.85;0.73;;;;;;;-0.33;100.00;102492.09;10380111;28;20049;-78
2022/12/03 10:30:31;;;;;;;1.00;0.47;;;;;;;-0.33;100.00;102481.97;10435521;28;20049;-77
2022/12/03 10:35:40;;;;;;;5.45;0.80;;;;;;;-0.32;100.00;102478.69;10439801;28;20103;-78
2022/12/03 10:40:41;;;;;;;1.75;0.55;;;;;;;-0.21;100.00;102483.91;10421018;28;20059;-79
2022/12/03 10:45:48;;;;;;;0.00;0.00;;;;;;;-0.21;100.00;102479.72;10431039;28;20413;-77
2022/12/03 10:51:02;;;;;;;0.57;0.57;;;;;;;-0.23;100.00;102472.72;10420486;28;20045;-76
2022/12/03 10:56:06;;;;;;;2.38;1.27;;;;;;;-0.24;100.00;102470.94;10404048;28;20378;-77
2022/12/03 11:01:20;;;;;;;0.60;0.60;;;;;;;-0.17;100.00;102469.16;10421198;28;20049;-77
2022/12/03 11:06:22;;;;;;;1.15;1.05;;;;;;;-0.19;100.00;102459.63;10396110;28;20456;-78
2022/12/03 11:11:26;;;;;;;3.10;1.75;;;;;;;-0.32;100.00;102445.78;10391113;28;20088;-78
2022/12/03 11:16:40;;;;;;;4.15;1.75;;;;;;;-0.28;100.00;102453.69;10399649;28;20037;-77
2022/12/03 11:22:16;;;;;;;1.08;1.02;;;;;;;-0.21;100.00;102445.91;10444351;28;20098;-80
2022/12/03 11:27:19;;;;;;;2.25;2.13;;;;;;;-0.20;100.00;102440.09;10446318;28;20088;-78
2022/12/03 11:32:36;;;;;;;2.92;2.13;;;;;;;-0.11;100.00;102435.00;10421522;28;20375;-79
2022/12/03 11:37:38;;;;;;;0.82;0.70;;;;;;;-0.14;100.00;102425.47;10401040;28;20405;-79
2022/12/03 11:42:39;;;;;;;1.27;1.23;;;;;;;-0.07;100.00;102410.09;10417774;28;20068;-79
2022/12/03 11:48:13;;;;;;;3.33;2.08;;;;;;;0.05;100.00;102404.38;10388621;28;20520;-79
2022/12/03 11:53:22;;;;;;;3.03;1.77;;;;;;;0.04;100.00;102395.00;10391046;28;20120;-80
2022/12/03 11:58:57;;;;;;;2.72;2.13;;;;;;;-0.12;100.00;102383.44;10397188;28;20051;-78
2022/12/03 12:03:59;;;;;;;1.40;1.17;;;;;;;-0.12;100.00;102370.78;10437944;28;20108;-78
2022/12/03 12:09:02;;;;;;;0.70;0.70;;;;;;;0.06;100.00;102358.91;10415992;28;20140;-79
2022/12/03 12:14:11;;;;;;;3.03;1.95;;;;;;;0.00;100.00;102363.44;10384308;28;20477;-78
2022/12/03 12:19:42;;;;;;;3.15;1.70;;;;;;;0.14;100.00;102344.41;10395174;28;20076;-79
2022/12/03 12:24:51;;;;;;;1.30;0.68;;;;;;;0.05;100.00;102330.88;10410752;28;20046;-80
2022/12/03 12:29:55;;;;;;;4.10;2.33;;;;;;;-0.14;100.00;102331.72;10397759;28;20049;-78
2022/12/03 12:35:20;;;;;;;1.73;1.63;;;;;;;0.01;100.00;102327.16;10394342;28;20046;-80
2022/12/03 12:40:25;;;;;;;0.10;0.10;;;;;;;-0.18;100.00;102324.59;10414777;28;20049;-80
2022/12/03 12:45:34;;;;;;;2.13;1.95;;;;;;;-0.17;100.00;102322.22;10393053;28;20046;-80
2022/12/03 12:50:36;;;;;;;0.40;0.40;;;;;;;-0.25;100.00;102309.56;10399557;28;20045;-80
2022/12/03 12:55:38;;;;;;;2.05;0.95;;;;;;;-0.24;100.00;102313.91;10371342;28;20046;-80
2022/12/03 13:00:40;;;;;;;0.63;0.63;;;;;;;-0.25;100.00;102305.41;10408456;28;20522;-79
2022/12/03 13:05:45;;;;;;;0.55;0.55;;;;;;;-0.24;100.00;102306.28;10394004;28;20052;-80
2022/12/03 13:10:48;;;;;;;1.85;1.17;;;;;;;-0.30;100.00;102303.19;10410855;28;20107;-80
2022/12/03 13:15:58;;;;;;;3.50;2.03;;;;;;;-0.39;100.00;102291.47;10419557;28;20048;-80
2022/12/03 13:21:17;;;;;;;0.45;0.45;;;;;;;-0.29;100.00;102297.38;10415364;28;20128;-80
2022/12/03 13:26:21;;;;;;;7.68;1.25;;;;;;;-0.27;100.00;102288.31;10417199;28;20072;-80
2022/12/03 13:31:55;;;;;;;0.93;0.77;;;;;;;-0.29;100.00;102279.66;10413157;28;20042;-82
2022/12/03 13:36:59;;;;;;;1.52;1.42;;;;;;;-0.20;100.00;102271.25;10405714;28;20500;-82
2022/12/03 13:47:36;;;;;;;1.20;1.17;;;;;;;-0.25;100.00;102253.84;10387395;28;20050;-82
2022/12/03 13:52:38;;;;;;;2.90;1.75;;;;;;;-0.27;100.00;102255.38;10412427;28;20095;-82
2022/12/03 13:57:40;;;;;;;2.65;2.17;;;;;;;-0.22;100.00;102259.22;10406948;28;20493;-83
2022/12/03 14:02:42;;;;;;;1.90;1.10;;;;;;;-0.27;100.00;102258.78;10404706;28;20043;-83
2022/12/03 14:07:47;;;;;;;3.40;0.70;;;;;;;-0.37;100.00;102257.06;10384060;28;20045;-82
2022/12/03 14:12:49;;;;;;;0.68;0.60;;;;;;;-0.34;100.00;102258.97;10405819;28;20787;-81
2022/12/03 14:17:51;;;;;;;5.22;2.28;;;;;;;-0.40;100.00;102251.69;10395766;28;20054;-82
2022/12/03 14:22:52;;;;;;;9.02;2.03;;;;;;;-0.40;100.00;102250.81;10404401;28;20073;-82
2022/12/03 14:28:07;;;;;;;2.17;1.75;;;;;;;-0.49;100.00;102246.69;10412544;28;20140;-83
2022/12/03 14:33:09;;;;;;;0.00;0.00;;;;;;;-0.44;100.00;102244.59;10407750;28;20398;-81
2022/12/03 14:38:16;;;;;;;1.70;1.60;;;;;;;-0.44;100.00;102234.47;10401378;28;20053;-82
2022/12/03 14:43:18;;;;;;;9.98;2.17;;;;;;;-0.44;100.00;102234.47;10407066;28;20065;-82
2022/12/03 14:48:19;;;;;;;1.38;1.27;;;;;;;-0.56;100.00;102231.69;10402582;28;20041;-81
2022/12/03 14:53:21;;;;;;;2.30;2.10;;;;;;;-0.62;100.00;102242.88;10398556;28;20497;-83
2022/12/03 14:58:27;;;;;;;3.10;1.80;;;;;;;-0.63;100.00;102241.13;10428462;28;20113;-82
2022/12/03 15:03:29;;;;;;;5.40;1.38;;;;;;;-0.58;100.00;102244.94;10424506;28;20485;-82
2022/12/03 15:08:31;;;;;;;1.60;1.48;;;;;;;-0.59;100.00;102248.22;10413384;28;20108;-82
2022/12/03 15:13:33;;;;;;;2.15;1.95;;;;;;;-0.61;100.00;102249.72;10413401;28;20030;-82
2022/12/03 15:18:41;;;;;;;0.57;0.57;;;;;;;-0.59;100.00;102249.09;10413338;28;20132;-80
2022/12/03 15:23:43;;;;;;;1.70;0.80;;;;;;;-0.62;100.00;102237.81;10405959;28;20041;-81
2022/12/03 15:28:46;;;;;;;0.63;0.63;;;;;;;-0.62;100.00;102243.78;10400278;28;20132;-82
2022/12/03 15:33:49;;;;;;;2.90;2.35;;;;;;;-0.69;100.00;102242.31;10412032;28;20108;-82
2022/12/03 15:38:53;;;;;;;3.22;2.17;;;;;;;-0.66;100.00;102254.34;10427600;28;20049;-83
2022/12/03 15:43:57;;;;;;;12.65;2.05;;;;;;;-0.72;100.00;102244.56;10416890;28;20041;-81
2022/12/03 15:48:59;;;;;;;5.20;1.88;;;;;;;-0.74;100.00;102248.59;10416261;28;20045;-82
2022/12/03 15:54:01;;;;;;;0.43;0.43;;;;;;;-0.59;100.00;102245.69;10417192;28;20052;-82
2022/12/03 15:59:03;;;;;;;1.55;1.45;;;;;;;-0.66;100.00;102241.69;10393287;28;20072;-82
2022/12/03 16:04:05;;;;;;;1.85;1.45;;;;;;;-0.73;100.00;102239.34;10424748;28;20738;-81
2022/12/03 16:09:09;;;;;;;1.10;0.98;;;;;;;-0.69;100.00;102236.38;10381770;28;20054;-82
2022/12/03 16:14:11;;;;;;;3.50;1.67;;;;;;;-0.77;100.00;102235.63;10392568;28;20057;-80
2022/12/03 16:19:13;;;;;;;0.10;0.10;;;;;;;-0.73;100.00;102229.22;10416945;28;20452;-82
2022/12/03 16:24:14;;;;;;;24.25;1.58;;;;;;;-0.74;100.00;102225.81;10415939;28;20076;-82
2022/12/03 16:29:19;;;;;;;1.05;0.52;;;;;;;-0.75;100.00;102221.50;10422153;28;20080;-82
2022/12/03 16:34:20;;;;;;;5.75;2.95;;;;;;;-0.75;100.00;102221.50;10440842;28;20042;-82
2022/12/03 16:39:22;;;;;;;1.45;1.20;;;;;;;-0.83;100.00;102219.88;10410538;28;20045;-82
2022/12/03 16:44:53;;;;;;;17.42;3.38;;;;;;;-0.87;100.00;102225.44;10399166;28;20068;-81
2022/12/03 16:49:56;;;;;;;1.33;1.13;;;;;;;-0.91;100.00;102218.28;10416225;28;20041;-82
2022/12/03 16:54:58;;;;;;;0.85;0.82;;;;;;;-0.97;100.00;102224.56;10415166;28;20103;-81
2022/12/03 17:00:00;;;;;;;6.78;3.15;;;;;;;-0.93;100.00;102233.31;10414046;28;20041;-82
2022/12/03 17:05:02;;;;;;;4.53;0.93;;;;;;;-0.99;100.00;102240.34;10414832;28;20041;-83
2022/12/03 17:10:04;;;;;;;1.25;1.15;;;;;;;-0.98;100.00;102235.41;10413937;28;20130;-82
2022/12/03 17:15:21;;;;;;;1.35;1.10;;;;;;;-0.99;100.00;102235.28;10393047;28;20053;-82
2022/12/03 17:20:23;;;;;;;3.25;2.20;;;;;;;-0.97;100.00;102243.91;10386301;28;20532;-81
2022/12/03 17:25:25;;;;;;;0.95;0.90;;;;;;;-0.99;100.00;102241.22;10416751;28;20050;-82
2022/12/03 17:30:27;;;;;;;2.80;2.28;;;;;;;-1.03;100.00;102239.16;10400805;28;20050;-81
2022/12/03 17:35:29;;;;;;;0.68;0.68;;;;;;;-0.95;100.00;102234.81;10413496;28;20045;-81
2022/12/03 17:40:30;;;;;;;1.35;1.20;;;;;;;-0.99;100.00;102236.16;10395882;28;20460;-83
2022/12/03 17:45:32;;;;;;;0.68;0.68;;;;;;;-0.99;100.00;102231.09;10405915;28;20509;-82
2022/12/03 17:50:34;;;;;;;15.00;6.32;;;;;;;-1.01;100.00;102231.72;10395275;28;20114;-82
2022/12/03 17:55:36;;;;;;;2.63;0.90;;;;;;;-1.01;100.00;102216.53;10398779;28;20045;-83
2022/12/03 18:00:48;;;;;;;4.93;1.08;;;;;;;-0.96;100.00;102217.84;10436535;28;20049;-82
2022/12/03 18:05:54;;;;;;;0.47;0.47;;;;;;;-1.06;100.00;102212.69;10429292;28;20045;-82
2022/12/03 18:10:55;;;;;;;3.50;2.72;;;;;;;-1.04;100.00;102206.16;10401332;28;20546;-82
2022/12/03 18:15:57;;;;;;;1.73;1.45;;;;;;;-1.06;100.00;102203.44;10402198;28;20122;-82
2022/12/03 18:21:00;;;;;;;1.73;1.17;;;;;;;-1.03;100.00;102207.91;10414353;28;20048;-82
2022/12/03 18:26:03;;;;;;;4.22;1.25;;;;;;;-1.13;100.00;102201.09;10413026;28;20080;-82
2022/12/03 18:31:13;;;;;;;3.88;1.52;;;;;;;-1.10;100.00;102206.44;10406762;28;20065;-83
2022/12/03 18:36:24;;;;;;;0.25;0.25;;;;;;;-1.10;100.00;102198.88;10407340;28;20116;-82
2022/12/03 18:41:26;;;;;;;2.15;1.35;;;;;;;-1.10;100.00;102196.34;10413957;28;20081;-83
2022/12/03 18:46:28;;;;;;;2.50;0.85;;;;;;;-1.12;100.00;102181.00;10416587;28;20041;-82
2022/12/03 18:51:49;;;;;;;1.98;1.88;;;;;;;-1.07;100.00;102178.03;10427015;28;20064;-82
2022/12/03 18:56:59;;;;;;;2.00;0.50;;;;;;;-1.10;100.00;102171.03;10422289;28;20045;-82
2022/12/03 19:02:01;;;;;;;1.48;1.38;;;;;;;-1.12;100.00;102173.41;10419970;28;20497;-82
2022/12/03 19:07:03;;;;;;;0.88;0.88;;;;;;;-1.13;100.00;102171.66;10405004;28;20103;-81
2022/12/03 19:12:06;;;;;;;1.40;1.13;;;;;;;-1.08;100.00;102161.06;10401478;28;20119;-82
2022/12/03 19:17:14;;;;;;;0.97;0.63;;;;;;;-1.12;100.00;102170.00;10414410;28;20045;-82
2022/12/03 19:22:16;;;;;;;0.88;0.88;;;;;;;-1.14;100.00;102172.41;10403816;28;20300;-82
2022/12/03 19:27:18;;;;;;;4.65;3.38;;;;;;;-1.18;100.00;102161.84;10420681;28;20046;-83
2022/12/03 19:32:19;;;;;;;2.55;2.13;;;;;;;-1.20;100.00;102169.28;10404960;28;20516;-83
2022/12/03 19:37:21;;;;;;;1.27;0.60;;;;;;;-1.14;100.00;102174.00;10437246;28;20061;-82
2022/12/03 19:42:27;;;;;;;0.80;0.80;;;;;;;-1.16;100.00;102165.41;10419579;28;20444;-83
2022/12/03 19:47:31;;;;;;;0.80;0.75;;;;;;;-1.18;100.00;102159.31;10432415;28;20045;-82
2022/12/03 19:52:34;;;;;;;3.70;1.38;;;;;;;-1.15;100.00;102152.00;10388580;28;20045;-82
2022/12/03 19:57:35;;;;;;;3.38;1.80;;;;;;;-1.17;100.00;102150.97;10404442;28;20084;-81
2022/12/03 20:02:37;;;;;;;1.73;1.30;;;;;;;-1.18;100.00;102149.19;10414148;28;20412;-82
2022/12/03 20:07:43;;;;;;;4.00;1.73;;;;;;;-1.12;100.00;102148.09;10414865;28;20092;-82
2022/12/03 20:12:47;;;;;;;2.80;1.63;;;;;;;-1.14;100.00;102151.25;10396728;28;20045;-82
2022/12/03 20:17:49;;;;;;;4.70;1.38;;;;;;;-1.17;100.00;102146.81;10404621;28;20075;-83
2022/12/03 20:22:50;;;;;;;4.95;2.72;;;;;;;-1.15;100.00;102152.00;10410104;28;20046;-82
2022/12/03 20:27:52;;;;;;;3.55;1.35;;;;;;;-1.13;100.00;102150.50;10406384;28;20042;-82
2022/12/03 20:32:56;;;;;;;1.83;1.73;;;;;;;-1.15;100.00;102145.31;10413899;28;20045;-82
2022/12/03 20:37:58;;;;;;;6.60;1.80;;;;;;;-1.15;100.00;102142.78;10404103;28;20124;-82
2022/12/03 20:42:59;;;;;;;1.92;1.67;;;;;;;-1.10;100.00;102139.78;10412604;28;20132;-82
2022/12/03 20:48:01;;;;;;;0.65;0.47;;;;;;;-1.13;100.00;102141.31;10416318;28;20054;-82
2022/12/03 20:53:03;;;;;;;4.15;1.27;;;;;;;-1.10;100.00;102140.69;10399464;28;20092;-82
2022/12/03 20:58:25;;;;;;;1.23;0.80;;;;;;;-1.12;100.00;102139.66;10392236;28;20167;-82
2022/12/03 21:03:26;;;;;;;1.35;1.25;;;;;;;-1.11;100.00;102133.84;10407438;28;20351;-83
2022/12/03 21:08:28;;;;;;;0.03;0.03;;;;;;;-1.09;100.00;102137.41;10418867;28;20037;-82
2022/12/03 21:13:43;;;;;;;2.47;1.75;;;;;;;-1.13;100.00;102140.38;10441381;28;20045;-82
2022/12/03 21:18:45;;;;;;;0.82;0.80;;;;;;;-1.09;100.00;102136.50;10413273;28;20172;-82
2022/12/03 21:23:46;;;;;;;3.08;1.90;;;;;;;-1.09;100.00;102136.50;10393540;28;20053;-82
2022/12/03 21:28:51;;;;;;;1.38;0.70;;;;;;;-1.09;100.00;102137.41;10401629;28;20075;-82
2022/12/03 21:33:54;;;;;;;0.50;0.50;;;;;;;-1.06;100.00;102132.63;10412607;28;20137;-82
2022/12/03 21:38:55;;;;;;;3.20;1.50;;;;;;;-1.05;100.00;102131.00;10414658;28;20048;-82
2022/12/03 21:43:57;;;;;;;0.52;0.52;;;;;;;-1.06;100.00;102137.69;10388766;28;20061;-82
2022/12/03 21:49:01;;;;;;;4.65;2.30;;;;;;;-1.03;100.00;102137.06;10407462;28;20443;-82
2022/12/03 21:54:14;;;;;;;3.50;1.88;;;;;;;-1.10;100.00;102138.16;10391741;28;20413;-82
2022/12/03 21:59:16;;;;;;;8.40;2.05;;;;;;;-1.06;100.00;102136.81;10406310;28;20054;-82
2022/12/03 22:04:18;;;;;;;2.60;1.10;;;;;;;-1.02;100.00;102139.75;10393340;28;20037;-82
2022/12/03 22:09:20;;;;;;;2.30;2.08;;;;;;;-1.06;100.00;102131.75;10400892;28;20084;-82
2022/12/03 22:14:27;;;;;;;2.20;1.08;;;;;;;-1.07;100.00;102124.91;10392966;28;20421;-82
2022/12/03 22:19:29;;;;;;;1.38;1.27;;;;;;;-1.01;100.00;102131.44;10395938;28;20041;-77
2022/12/03 22:24:30;;;;;;;2.63;2.42;;;;;;;-1.05;100.00;102128.47;10402984;28;20092;-78
2022/12/03 22:29:32;;;;;;;2.13;1.58;;;;;;;-1.07;100.00;102115.66;10418641;28;20100;-77
2022/12/03 22:34:34;;;;;;;2.80;1.95;;;;;;;-1.02;100.00;102119.53;10421374;28;20040;-76
2022/12/03 22:40:01;;;;;;;1.45;1.02;;;;;;;-1.04;100.00;102110.91;10421854;28;20054;-79
2022/12/03 22:45:07;;;;;;;1.33;0.75;;;;;;;-0.99;100.00;102114.72;10434683;28;20073;-78
2022/12/03 22:50:09;;;;;;;1.17;1.10;;;;;;;-0.97;100.00;102118.31;10408316;28;20532;-77
2022/12/03 22:55:10;;;;;;;4.78;2.88;;;;;;;-1.00;100.00;102118.00;10422401;28;20397;-77
2022/12/03 23:00:14;;;;;;;0.60;0.60;;;;;;;-0.93;100.00;102113.53;10399570;28;20096;-76
2022/12/03 23:05:15;;;;;;;2.63;2.10;;;;;;;-0.99;100.00;102108.78;10403149;28;20072;-77
2022/12/03 23:10:17;;;;;;;7.00;3.67;;;;;;;-0.97;100.00;102108.19;10418651;28;20049;-77
2022/12/03 23:15:18;;;;;;;1.48;1.33;;;;;;;-0.98;100.00;102114.00;10391308;28;20413;-79
2022/12/03 23:20:20;;;;;;;2.80;1.08;;;;;;;-0.95;100.00;102110.84;10398892;28;20144;-76
2022/12/03 23:25:22;;;;;;;3.97;3.63;;;;;;;-0.94;100.00;102109.22;10400185;28;20103;-78
2022/12/03 23:30:23;;;;;;;2.28;2.08;;;;;;;-0.99;100.00;102104.63;10391465;28;20463;-77
2022/12/03 23:35:25;;;;;;;1.27;0.98;;;;;;;-0.94;100.00;102106.69;10396519;28;20124;-78